Time;durP1;ratioP1;P1;durP2;ratioP2;P2;SDS_P1;SDS_P2;PMS_P1;PMS_P2;Temp;Humidity;BMP_temperature;BMP_pressure;BME280_temperature;BME280_humidity;BME280_pressure;Samples;Min_cycle;Max_cycle;Signal;HPM_P1;HPM_P2
2023/03/06 05:13:06;;;;;;;;;;;;;;;6.20;63.90;95989.16;4272556;27;10227;-64
2023/03/06 05:15:12;;;;;;;;;;;;;;;6.46;63.45;95982.59;4266069;27;5574;-64
2023/03/06 05:17:15;;;;;;;;;;;;;;;6.66;63.24;95986.19;4265758;27;5644;-64
2023/03/06 05:19:18;;;;;;;;;;;;;;;6.80;62.80;95985.34;4266263;27;5624;-64
2023/03/06 05:21:20;;;;;;;;;;;;;;;6.92;62.59;95989.06;4265982;27;5639;-64
2023/03/06 05:23:23;;;;;;;;;;;;;;;7.04;62.21;95989.38;4265925;27;5831;-63
2023/03/06 05:25:26;;;;;;;;;;;;;;;7.13;62.11;95987.38;4266008;27;5715;-64
2023/03/06 05:27:29;;;;;;;;;;;;;;;7.18;61.95;95985.84;4265839;27;5742;-64
2023/03/06 05:29:33;;;;;;;;;;;;;;;7.23;62.01;95993.94;4266145;27;5627;-64
2023/03/06 05:31:36;;;;;;;;;;;;;;;7.27;61.90;95997.84;4265683;27;5640;-63
2023/03/06 05:33:39;;;;;;;;;;;;;;;7.31;61.60;95995.63;4264993;27;5689;-64
2023/03/06 05:35:45;;;;;;;;;;;;;;;7.35;61.62;96002.09;4262239;27;5159;-64
2023/03/06 05:37:49;;;;;;;;;;;;;;;7.39;61.74;95999.94;4263347;27;7689;-64
2023/03/06 05:39:52;;;;;;;;;;;;;;;7.40;61.63;96002.38;4265895;27;5610;-64
2023/03/06 05:41:55;;;;;;;;;;;;;;;7.44;61.59;96003.59;4261247;27;5816;-64
2023/03/06 05:43:58;;;;;;;;;;;;;;;7.46;61.25;96006.84;4264685;27;5683;-64
2023/03/06 05:46:05;;;;;;;;;;;;;;;7.48;61.36;96004.03;4256702;27;5861;-64
2023/03/06 05:48:08;;;;;;;;;;;;;;;7.48;61.24;96010.13;4264840;27;5627;-64
2023/03/06 05:50:12;;;;;;;;;;;;;;;7.47;61.13;96003.19;4266233;27;5619;-64
2023/03/06 05:52:16;;;;;;;;;;;;;;;7.50;61.13;95997.56;4264760;27;5639;-69
2023/03/06 05:54:19;;;;;;;;;;;;;;;7.49;61.06;95992.50;4252703;27;5661;-65
2023/03/06 05:56:22;;;;;;;;;;;;;;;7.50;60.98;95989.69;4255277;27;5627;-65
2023/03/06 05:58:25;;;;;;;;;;;;;;;7.53;61.06;95997.19;4257129;27;5613;-65
2023/03/06 06:00:29;;;;;;;;;;;;;;;7.53;60.84;95989.28;4259294;27;5702;-65
2023/03/06 06:02:33;;;;;;;;;;;;;;;7.55;60.55;95991.72;4258661;27;5772;-65
2023/03/06 06:04:36;;;;;;;;;;;;;;;7.56;60.63;95995.97;4253640;27;5755;-65
2023/03/06 06:06:39;;;;;;;;;;;;;;;7.54;60.58;95990.09;4259235;27;5611;-65
2023/03/06 06:08:42;;;;;;;;;;;;;;;7.56;60.64;95995.97;4264176;27;5719;-65
2023/03/06 06:10:45;;;;;;;;;;;;;;;7.56;60.49;95995.97;4267556;27;5118;-65
2023/03/06 06:12:48;;;;;;;;;;;;;;;7.55;60.52;95995.16;4253563;27;7709;-64
2023/03/06 06:14:51;;;;;;;;;;;;;;;7.54;60.33;95995.38;4248833;27;5696;-65
2023/03/06 06:16:54;;;;;;;;;;;;;;;7.54;60.32;96006.69;4253676;27;5648;-65
2023/03/06 06:18:58;;;;;;;;;;;;;;;7.54;60.21;95996.19;4253594;27;5645;-65
2023/03/06 06:21:04;;;;;;;;;;;;;;;7.56;60.17;95994.16;4250138;27;5860;-65
2023/03/06 06:23:07;;;;;;;;;;;;;;;7.58;60.15;96010.56;4249785;27;5602;-65
2023/03/06 06:25:10;;;;;;;;;;;;;;;7.59;60.05;96003.50;4252763;27;5631;-65
2023/03/06 06:27:13;;;;;;;;;;;;;;;7.57;60.01;96001.03;4252399;27;5624;-66
2023/03/06 06:29:16;;;;;;;;;;;;;;;7.56;60.02;95996.78;4252015;27;5852;-66
2023/03/06 06:31:19;;;;;;;;;;;;;;;7.57;59.91;96008.94;4252656;27;5741;-66
2023/03/06 06:33:22;;;;;;;;;;;;;;;7.61;59.81;96005.94;4253002;27;5636;-66
2023/03/06 06:35:27;;;;;;;;;;;;;;;7.61;59.58;95998.03;4250105;27;5856;-67
2023/03/06 06:37:30;;;;;;;;;;;;;;;7.62;59.84;96010.19;4250308;27;5628;-65
2023/03/06 06:39:33;;;;;;;;;;;;;;;7.59;59.61;95996.44;4252882;27;5812;-65
2023/03/06 06:41:37;;;;;;;;;;;;;;;7.61;59.50;96001.47;4252213;27;5718;-66
2023/03/06 06:43:59;;;;;;;;;;;;;;;7.62;59.56;96007.56;4253616;27;5636;-66
2023/03/06 06:46:02;;;;;;;;;;;;;;;7.61;59.45;96017.28;4253295;27;5628;-66
2023/03/06 06:48:25;;;;;;;;;;;;;;;7.61;59.29;96004.13;4247003;27;5842;-65
2023/03/06 06:50:29;;;;;;;;;;;;;;;7.64;59.35;96011.63;4253632;27;5647;-66
2023/03/06 06:52:32;;;;;;;;;;;;;;;7.67;59.29;96018.28;4244476;27;5624;-66
2023/03/06 06:54:35;;;;;;;;;;;;;;;7.69;59.35;96019.72;4252991;27;5640;-66
2023/03/06 06:56:38;;;;;;;;;;;;;;;7.72;59.32;96023.81;4251961;27;5597;-66
2023/03/06 06:58:41;;;;;;;;;;;;;;;7.73;58.94;96017.53;4253109;27;6482;-66
2023/03/06 07:00:44;;;;;;;;;;;;;;;7.76;58.94;96022.41;4252251;27;5086;-66
2023/03/06 07:02:50;;;;;;;;;;;;;;;7.78;58.93;96026.47;4249902;27;7698;-66
2023/03/06 07:04:52;;;;;;;;;;;;;;;7.80;58.78;96021.00;4242457;27;5578;-66
2023/03/06 07:07:08;;;;;;;;;;;;;;;7.86;58.64;96026.31;4247167;27;6303;-66
2023/03/06 07:09:12;;;;;;;;;;;;;;;7.91;58.71;96036.25;4248764;27;5735;-67
2023/03/06 07:11:17;;;;;;;;;;;;;;;7.94;58.82;96020.09;4246380;27;5768;-66
2023/03/06 07:13:20;;;;;;;;;;;;;;;7.98;58.48;96016.03;4250779;27;5743;-67
2023/03/06 07:15:25;;;;;;;;;;;;;;;8.00;58.47;96016.66;4252013;27;5623;-66
2023/03/06 07:17:28;;;;;;;;;;;;;;;8.05;58.39;96011.63;4252425;27;5632;-66
2023/03/06 07:19:31;;;;;;;;;;;;;;;8.10;58.24;96013.66;4248501;27;5790;-66
2023/03/06 07:21:34;;;;;;;;;;;;;;;8.13;58.01;96019.34;4248398;27;5738;-66
2023/03/06 07:23:39;;;;;;;;;;;;;;;8.18;58.31;96011.69;4241556;27;5628;-66
2023/03/06 07:25:42;;;;;;;;;;;;;;;8.25;58.14;96010.88;4244144;27;5695;-66
2023/03/06 07:27:45;;;;;;;;;;;;;;;8.27;58.32;96014.97;4240025;27;5765;-66
2023/03/06 07:29:57;;;;;;;;;;;;;;;8.33;57.97;96013.34;4252251;27;5727;-66
2023/03/06 07:32:01;;;;;;;;;;;;;;;8.34;58.11;96005.28;4252158;27;5925;-65
2023/03/06 07:34:04;;;;;;;;;;;;;;;8.37;57.78;96015.41;4250140;27;5735;-66
2023/03/06 07:36:10;;;;;;;;;;;;;;;8.36;57.71;96018.22;4251705;27;6476;-66
2023/03/06 07:38:15;;;;;;;;;;;;;;;8.32;57.85;96022.25;4242969;27;6365;-67
2023/03/06 07:40:21;;;;;;;;;;;;;;;8.28;57.96;96018.41;4237360;27;5645;-66
2023/03/06 07:42:24;;;;;;;;;;;;;;;8.27;58.00;96019.38;4252284;27;5090;-66
2023/03/06 07:44:27;;;;;;;;;;;;;;;8.33;57.79;96019.41;4251386;27;5624;-66
2023/03/06 07:46:30;;;;;;;;;;;;;;;8.37;57.68;96019.84;4249793;27;5835;-66
2023/03/06 07:48:34;;;;;;;;;;;;;;;8.39;57.43;96021.31;4243296;27;5645;-66
2023/03/06 07:50:37;;;;;;;;;;;;;;;8.42;57.34;96028.00;4240058;27;5719;-66
2023/03/06 07:52:40;;;;;;;;;;;;;;;8.38;57.59;96017.03;4251937;27;5740;-66
2023/03/06 07:54:43;;;;;;;;;;;;;;;8.43;57.65;96019.06;4251599;27;5628;-66
2023/03/06 07:56:55;;;;;;;;;;;;;;;8.40;57.55;96020.28;4251652;27;5632;-66
2023/03/06 07:58:58;;;;;;;;;;;;;;;8.41;57.32;96021.09;4251993;27;5747;-66
2023/03/06 08:01:04;;;;;;;;;;;;;;;8.39;57.32;96021.31;4251609;27;5703;-66
2023/03/06 08:03:09;;;;;;;;;;;;;;;8.40;57.48;96027.38;4248788;27;6230;-66
2023/03/06 08:05:14;;;;;;;;;;;;;;;8.38;57.37;96024.09;4250745;27;5763;-67
2023/03/06 08:07:17;;;;;;;;;;;;;;;8.40;57.26;96030.00;4251886;27;5627;-66
2023/03/06 08:09:21;;;;;;;;;;;;;;;8.43;57.42;96032.25;4249914;27;5836;-65
2023/03/06 08:11:25;;;;;;;;;;;;;;;8.42;57.19;96031.44;4246097;27;5620;-65
2023/03/06 08:13:29;;;;;;;;;;;;;;;8.44;57.08;96032.03;4252040;27;5755;-66
2023/03/06 08:15:32;;;;;;;;;;;;;;;8.49;57.09;96034.06;4250592;27;5644;-66
2023/03/06 08:17:35;;;;;;;;;;;;;;;8.51;57.20;96032.06;4249095;27;5928;-66
2023/03/06 08:19:39;;;;;;;;;;;;;;;8.48;57.08;96021.91;4240085;27;5635;-66
2023/03/06 08:21:41;;;;;;;;;;;;;;;8.45;56.98;96028.41;4252216;27;5624;-66
2023/03/06 08:23:47;;;;;;;;;;;;;;;8.44;57.11;96036.50;4242653;27;5624;-66
2023/03/06 08:25:56;;;;;;;;;;;;;;;8.49;57.13;96030.63;4250631;27;5739;-66
2023/03/06 08:27:59;;;;;;;;;;;;;;;8.50;57.09;96034.91;4251079;27;5726;-66
2023/03/06 08:30:05;;;;;;;;;;;;;;;8.54;56.86;96031.66;4234652;28;5657;-67
2023/03/06 08:32:11;;;;;;;;;;;;;;;8.56;56.97;96034.91;4241505;27;5707;-66
2023/03/06 08:34:17;;;;;;;;;;;;;;;8.59;56.85;96039.78;4249077;27;5612;-67
2023/03/06 08:36:20;;;;;;;;;;;;;;;8.62;56.93;96041.22;4237220;27;5731;-65
2023/03/06 08:38:23;;;;;;;;;;;;;;;8.60;56.60;96038.75;4251379;27;5783;-65
2023/03/06 08:40:29;;;;;;;;;;;;;;;8.62;56.96;96042.03;4251203;27;5842;-65
2023/03/06 08:42:32;;;;;;;;;;;;;;;8.64;56.80;96041.84;4251320;27;5731;-65
2023/03/06 08:44:35;;;;;;;;;;;;;;;8.66;56.67;96045.88;4245604;27;5708;-66
2023/03/06 08:46:39;;;;;;;;;;;;;;;8.68;56.55;96043.84;4247704;27;5716;-66
2023/03/06 08:48:42;;;;;;;;;;;;;;;8.72;56.58;96041.63;4250198;27;5632;-65
2023/03/06 08:50:45;;;;;;;;;;;;;;;8.74;56.39;96037.81;4249475;27;5688;-66
2023/03/06 08:52:48;;;;;;;;;;;;;;;8.77;56.32;96041.03;4251574;27;5781;-66
2023/03/06 08:54:51;;;;;;;;;;;;;;;8.81;56.61;96039.63;4250208;27;5640;-65
2023/03/06 08:56:54;;;;;;;;;;;;;;;8.79;56.58;96041.66;4251232;27;5643;-65
2023/03/06 08:58:59;;;;;;;;;;;;;;;8.84;56.17;96040.06;4235348;27;5649;-66
2023/03/06 09:01:02;;;;;;;;;;;;;;;8.86;56.45;96039.84;4241298;27;5785;-66
2023/03/06 09:03:07;;;;;;;;;;;;;;;8.86;56.54;96040.66;4241928;27;5642;-66
2023/03/06 09:05:11;;;;;;;;;;;;;;;8.87;56.40;96042.28;4243911;27;5736;-65
2023/03/06 09:07:14;;;;;;;;;;;;;;;8.92;56.41;96039.03;4251541;27;5636;-65
2023/03/06 09:09:17;;;;;;;;;;;;;;;8.98;56.08;96038.25;4248977;27;5774;-66
2023/03/06 09:11:22;;;;;;;;;;;;;;;9.04;55.94;96037.41;4250705;27;5842;-68
2023/03/06 09:13:25;;;;;;;;;;;;;;;9.03;56.00;96030.53;4251402;27;5659;-66
2023/03/06 09:15:27;;;;;;;;;;;;;;;9.05;56.02;96039.03;4249679;27;5755;-67
2023/03/06 09:17:30;;;;;;;;;;;;;;;9.03;56.19;96039.25;4250832;27;5644;-67
2023/03/06 09:19:35;;;;;;;;;;;;;;;9.10;56.25;96039.25;4241293;27;5720;-68
2023/03/06 09:21:38;;;;;;;;;;;;;;;9.13;55.99;96036.22;4250594;27;5640;-66
2023/03/06 09:23:41;;;;;;;;;;;;;;;9.16;56.06;96035.81;4251259;27;6290;-66
2023/03/06 09:25:44;;;;;;;;;;;;;;;9.19;55.87;96045.97;4249931;27;5700;-66
2023/03/06 09:27:48;;;;;;;;;;;;;;;9.16;55.98;96043.72;4250713;27;5620;-66
2023/03/06 09:30:08;;;;;;;;;;;;;;;9.18;55.69;96047.00;4250698;27;5665;-66
2023/03/06 09:32:11;;;;;;;;;;;;;;;9.14;56.09;96045.75;4243344;27;5109;-66
2023/03/06 09:34:15;;;;;;;;;;;;;;;9.16;56.10;96046.34;4250547;27;7640;-66
2023/03/06 09:36:21;;;;;;;;;;;;;;;9.17;56.08;96047.97;4236251;27;5653;-66
2023/03/06 09:38:26;;;;;;;;;;;;;;;9.18;55.73;96047.00;4250636;27;5781;-66
2023/03/06 09:40:45;;;;;;;;;;;;;;;9.17;55.96;96045.34;4250931;27;5648;-66
2023/03/06 09:42:48;;;;;;;;;;;;;;;9.14;55.90;96048.38;4250537;27;5628;-66
2023/03/06 09:44:55;;;;;;;;;;;;;;;9.14;55.73;96045.75;4250576;27;5648;-66
2023/03/06 09:47:18;;;;;;;;;;;;;;;9.17;55.69;96044.53;4249866;27;5837;-66
2023/03/06 09:49:46;;;;;;;;;;;;;;;9.17;55.75;96037.44;4253767;27;5750;-66
2023/03/06 09:52:02;;;;;;;;;;;;;;;9.19;55.65;96032.78;4253887;27;5632;-66
2023/03/06 09:54:12;;;;;;;;;;;;;;;9.17;55.50;96040.06;4246433;27;5847;-66
2023/03/06 09:56:19;;;;;;;;;;;;;;;9.20;55.53;96042.31;4253985;27;8436;-66
2023/03/06 09:58:24;;;;;;;;;;;;;;;9.21;55.67;96038.66;4236731;27;5653;-66
2023/03/06 10:00:32;;;;;;;;;;;;;;;9.17;55.45;96034.78;4247096;27;5640;-66
2023/03/06 10:02:38;;;;;;;;;;;;;;;9.19;55.33;96034.63;4251351;27;6362;-66
2023/03/06 10:04:44;;;;;;;;;;;;;;;9.19;55.56;96035.41;4253473;27;5753;-66
2023/03/06 10:06:55;;;;;;;;;;;;;;;9.21;55.56;96030.75;4254064;27;5620;-65
2023/03/06 10:09:02;;;;;;;;;;;;;;;9.23;55.33;96031.34;4245025;27;5840;-66
2023/03/06 10:11:13;;;;;;;;;;;;;;;9.25;55.25;96037.22;4237785;27;5745;-66
2023/03/06 10:13:25;;;;;;;;;;;;;;;9.24;55.23;96027.69;4252471;27;5771;-66
2023/03/06 10:15:32;;;;;;;;;;;;;;;9.25;55.04;96029.31;4251278;27;5628;-66
2023/03/06 10:17:38;;;;;;;;;;;;;;;9.28;55.25;96028.09;4251504;27;5800;-65
2023/03/06 10:19:43;;;;;;;;;;;;;;;9.27;55.09;96024.66;4248230;27;5683;-66
2023/03/06 10:21:55;;;;;;;;;;;;;;;9.26;54.82;96019.59;4253664;27;5295;-66
2023/03/06 10:24:07;;;;;;;;;;;;;;;9.28;55.00;96020.19;4252481;27;7070;-66
2023/03/06 10:26:15;;;;;;;;;;;;;;;9.27;55.08;96024.66;4242392;27;5083;-66
2023/03/06 10:28:24;;;;;;;;;;;;;;;9.28;54.65;96018.34;4236098;27;7678;-66
2023/03/06 10:30:39;;;;;;;;;;;;;;;9.30;54.57;96019.00;4247079;27;5675;-65
2023/03/06 10:32:49;;;;;;;;;;;;;;;9.30;54.56;96010.25;4249539;27;5636;-66
2023/03/06 10:34:56;;;;;;;;;;;;;;;9.30;54.62;96013.72;4247891;27;5657;-66
2023/03/06 10:37:11;;;;;;;;;;;;;;;9.28;54.64;96013.09;4252199;27;5620;-66
2023/03/06 10:39:18;;;;;;;;;;;;;;;9.36;54.51;96019.97;4252870;27;5744;-66
2023/03/06 10:41:26;;;;;;;;;;;;;;;9.33;54.61;96010.66;4253393;27;5620;-66
2023/03/06 10:43:29;;;;;;;;;;;;;;;9.39;54.49;96019.56;4253256;27;5624;-68
2023/03/06 10:45:32;;;;;;;;;;;;;;;9.36;54.22;96021.81;4252151;27;5697;-66
2023/03/06 10:48:08;;;;;;;;;;;;;;;9.34;54.30;96014.91;4251536;27;5700;-66
2023/03/06 10:50:24;;;;;;;;;;;;;;;9.39;54.15;96008.22;4248450;27;5819;-66
2023/03/06 10:52:33;;;;;;;;;;;;;;;9.41;54.20;96009.66;4252973;27;5877;-66
2023/03/06 10:54:38;;;;;;;;;;;;;;;9.39;54.00;96005.56;4235573;28;5799;-67
2023/03/06 10:56:43;;;;;;;;;;;;;;;9.37;54.13;96010.25;4250272;27;5621;-66
2023/03/06 10:58:46;;;;;;;;;;;;;;;9.41;53.89;96004.38;4251364;27;5709;-67
2023/03/06 11:01:01;;;;;;;;;;;;;;;9.45;53.70;96002.13;4252679;27;5710;-66
2023/03/06 11:03:13;;;;;;;;;;;;;;;9.46;53.74;96001.09;4252567;27;5710;-67
2023/03/06 11:05:20;;;;;;;;;;;;;;;9.45;53.98;95999.50;4246855;27;5665;-66
2023/03/06 11:07:24;;;;;;;;;;;;;;;9.46;54.04;95993.19;4247089;27;5636;-67
2023/03/06 11:09:29;;;;;;;;;;;;;;;9.47;53.87;95994.81;4249307;27;5623;-67
2023/03/06 11:11:32;;;;;;;;;;;;;;;9.48;53.77;96002.53;4251692;27;5730;-66
2023/03/06 11:13:41;;;;;;;;;;;;;;;9.50;53.69;95994.38;4252381;27;5804;-66
2023/03/06 11:15:56;;;;;;;;;;;;;;;9.49;53.65;95995.41;4243151;27;5776;-67
2023/03/06 11:18:03;;;;;;;;;;;;;;;9.50;53.53;95992.56;4251940;27;5843;-66
2023/03/06 11:20:28;;;;;;;;;;;;;;;9.49;53.53;95982.22;4236123;27;5669;-66
2023/03/06 11:22:54;;;;;;;;;;;;;;;9.52;53.45;95993.19;4251884;27;5731;-66
2023/03/06 11:24:59;;;;;;;;;;;;;;;9.57;53.53;95989.94;4252124;27;5605;-66
2023/03/06 11:27:14;;;;;;;;;;;;;;;9.51;53.15;95986.31;4244976;27;5772;-66
2023/03/06 11:29:39;;;;;;;;;;;;;;;9.50;53.56;95983.84;4237301;27;5116;-65
2023/03/06 11:31:48;;;;;;;;;;;;;;;9.56;53.24;95980.38;4251951;27;7803;-66
2023/03/06 11:33:55;;;;;;;;;;;;;;;9.60;53.02;95981.59;4250974;27;5727;-66
2023/03/06 11:36:04;;;;;;;;;;;;;;;9.64;52.89;95980.19;4235120;28;5735;-66
2023/03/06 11:38:14;;;;;;;;;;;;;;;9.65;52.93;95979.16;4236559;27;5777;-66
2023/03/06 11:40:24;;;;;;;;;;;;;;;9.66;53.20;95978.13;4252270;27;5628;-65
2023/03/06 11:42:32;;;;;;;;;;;;;;;9.69;52.76;95967.16;4252761;27;5624;-66
2023/03/06 11:44:46;;;;;;;;;;;;;;;9.68;52.69;95960.25;4252335;27;5758;-72
2023/03/06 11:46:53;;;;;;;;;;;;;;;9.73;52.68;95957.78;4248411;27;5907;-72
2023/03/06 11:49:04;;;;;;;;;;;;;;;9.75;52.72;95954.97;4251079;27;5762;-70
2023/03/06 11:51:14;;;;;;;;;;;;;;;9.77;52.35;95945.81;4252219;27;5636;-68
2023/03/06 11:53:20;;;;;;;;;;;;;;;9.80;52.66;95953.31;4239830;27;5652;-72
2023/03/06 11:55:38;;;;;;;;;;;;;;;9.80;52.32;95948.03;4246386;27;5632;-71
2023/03/06 11:57:50;;;;;;;;;;;;;;;9.82;52.31;95945.19;4252004;27;5620;-70
2023/03/06 12:00:07;;;;;;;;;;;;;;;9.82;52.28;95940.72;4250639;27;5644;-73
2023/03/06 12:02:24;;;;;;;;;;;;;;;9.81;52.19;95944.38;4251375;27;5636;-72
2023/03/06 12:04:49;;;;;;;;;;;;;;;9.82;52.31;95930.16;4248187;27;5744;-72
2023/03/06 12:07:04;;;;;;;;;;;;;;;9.84;51.84;95933.38;4251587;27;5609;-72
2023/03/06 12:09:29;;;;;;;;;;;;;;;9.83;51.94;95933.59;4244075;27;5651;-71
2023/03/06 12:11:41;;;;;;;;;;;;;;;9.83;51.88;95926.50;4247801;27;5728;-71
2023/03/06 12:14:16;;;;;;;;;;;;;;;9.87;51.87;95925.06;4239220;27;5620;-72
2023/03/06 12:16:38;;;;;;;;;;;;;;;9.89;51.71;95915.13;4243154;27;5649;-72
2023/03/06 12:18:49;;;;;;;;;;;;;;;9.93;51.52;95913.66;4239585;27;5637;-71
2023/03/06 12:21:02;;;;;;;;;;;;;;;9.96;51.44;95914.25;4250416;27;5624;-72
2023/03/06 12:23:17;;;;;;;;;;;;;;;9.96;51.43;95914.25;4244124;27;5628;-70
2023/03/06 12:25:30;;;;;;;;;;;;;;;9.96;51.65;95904.50;4251527;27;5827;-72
2023/03/06 12:27:44;;;;;;;;;;;;;;;10.00;51.42;95895.16;4250005;27;5644;-71
2023/03/06 12:30:09;;;;;;;;;;;;;;;10.02;51.58;95893.09;4251020;27;5590;-70
2023/03/06 12:32:22;;;;;;;;;;;;;;;10.06;51.21;95888.22;4251078;27;5715;-66
2023/03/06 12:34:39;;;;;;;;;;;;;;;10.09;51.32;95887.81;4249809;27;5707;-67
2023/03/06 12:36:53;;;;;;;;;;;;;;;10.11;51.00;95889.22;4251167;27;5735;-67
2023/03/06 12:39:07;;;;;;;;;;;;;;;10.12;51.28;95876.81;4251126;27;5790;-67
2023/03/06 12:41:22;;;;;;;;;;;;;;;10.19;51.11;95880.19;4250254;27;5858;-66
2023/03/06 12:44:03;;;;;;;;;;;;;;;10.19;51.23;95872.28;4246329;27;5658;-67
2023/03/06 12:46:11;;;;;;;;;;;;;;;10.19;50.88;95872.28;4227390;27;5704;-67
2023/03/06 12:48:18;;;;;;;;;;;;;;;10.22;50.74;95866.63;4234607;27;5732;-68
2023/03/06 12:50:25;;;;;;;;;;;;;;;10.24;51.05;95867.22;4243398;27;5657;-68
2023/03/06 12:52:31;;;;;;;;;;;;;;;10.24;50.69;95864.56;4247098;27;5624;-67
2023/03/06 12:54:37;;;;;;;;;;;;;;;10.20;50.69;95868.66;4249964;27;5718;-67
2023/03/06 12:56:42;;;;;;;;;;;;;;;10.22;51.07;95871.09;4250439;27;5703;-66
2023/03/06 12:58:51;;;;;;;;;;;;;;;10.23;50.70;95867.44;4251353;27;5707;-67
2023/03/06 13:01:08;;;;;;;;;;;;;;;10.26;50.47;95865.16;4250493;27;5772;-66
2023/03/06 13:03:19;;;;;;;;;;;;;;;10.28;50.74;95852.53;4249829;27;5755;-67
2023/03/06 13:05:55;;;;;;;;;;;;;;;10.33;50.22;95849.28;4246698;27;5603;-66
2023/03/06 13:08:19;;;;;;;;;;;;;;;10.32;50.32;95845.84;4245471;27;5860;-65
2023/03/06 13:10:26;;;;;;;;;;;;;;;10.36;50.25;95851.50;4245472;27;5624;-66
2023/03/06 13:12:48;;;;;;;;;;;;;;;10.39;50.11;95853.69;4249651;27;5624;-66
2023/03/06 13:14:54;;;;;;;;;;;;;;;10.39;50.36;95846.56;4249134;27;5640;-66
2023/03/06 13:17:25;;;;;;;;;;;;;;;10.44;50.10;95843.31;4251054;27;5688;-66
2023/03/06 13:19:28;;;;;;;;;;;;;;;10.45;49.97;95840.44;4245782;27;5620;-66
2023/03/06 13:21:47;;;;;;;;;;;;;;;10.47;50.03;95845.50;4250742;27;5644;-66
2023/03/06 13:23:51;;;;;;;;;;;;;;;10.49;49.81;95835.53;4245608;27;5612;-66
2023/03/06 13:25:55;;;;;;;;;;;;;;;10.50;49.73;95832.66;4252963;27;5668;-65
2023/03/06 13:28:02;;;;;;;;;;;;;;;10.53;49.80;95831.41;4254380;27;5639;-66
2023/03/06 13:30:23;;;;;;;;;;;;;;;10.54;49.50;95826.97;4253975;27;5608;-66
2023/03/06 13:32:34;;;;;;;;;;;;;;;10.57;49.83;95827.34;4254082;27;5760;-66
2023/03/06 13:34:38;;;;;;;;;;;;;;;10.61;49.69;95839.09;4249050;27;5719;-66
2023/03/06 13:36:41;;;;;;;;;;;;;;;10.59;49.67;95835.84;4251951;27;5597;-66
2023/03/06 13:39:09;;;;;;;;;;;;;;;10.58;49.50;95833.44;4253614;27;5617;-66
2023/03/06 13:41:43;;;;;;;;;;;;;;;10.59;49.42;95835.84;4246122;27;5828;-66
2023/03/06 13:43:47;;;;;;;;;;;;;;;10.61;49.63;95833.81;4179248;28;5673;-66
2023/03/06 13:45:50;;;;;;;;;;;;;;;10.66;49.37;95838.44;4180607;28;5782;-66
2023/03/06 13:47:57;;;;;;;;;;;;;;;10.67;49.44;95829.50;4184496;28;5832;-66
2023/03/06 13:50:36;;;;;;;;;;;;;;;10.66;49.05;95826.03;4181855;28;5972;-66
2023/03/06 13:52:50;;;;;;;;;;;;;;;10.69;49.17;95819.50;4169917;28;6440;-66
2023/03/06 13:55:05;;;;;;;;;;;;;;;10.70;48.98;95827.22;4169660;28;6711;-66
2023/03/06 13:57:21;;;;;;;;;;;;;;;10.71;49.03;95814.81;4182183;28;5825;-66
2023/03/06 13:59:54;;;;;;;;;;;;;;;10.72;48.99;95819.88;4184357;28;6299;-66
2023/03/06 14:02:33;;;;;;;;;;;;;;;10.73;49.04;95805.63;4180723;28;5855;-66
2023/03/06 14:04:52;;;;;;;;;;;;;;;10.78;49.14;95810.28;4177528;28;6010;-66
2023/03/06 14:07:18;;;;;;;;;;;;;;;10.81;49.03;95812.47;4181020;28;5665;-66
2023/03/06 14:09:28;;;;;;;;;;;;;;;10.82;48.75;95803.53;4174778;28;5652;-66
2023/03/06 14:11:32;;;;;;;;;;;;;;;10.86;48.46;95807.34;4182420;28;5761;-66
2023/03/06 14:13:39;;;;;;;;;;;;;;;10.89;48.33;95804.28;4182780;28;5741;-66
2023/03/06 14:15:51;;;;;;;;;;;;;;;10.91;48.47;95804.84;4181182;28;5734;-66
2023/03/06 14:18:00;;;;;;;;;;;;;;;10.93;48.57;95805.44;4205727;27;5807;-66
2023/03/06 14:20:13;;;;;;;;;;;;;;;10.96;48.46;95805.00;4249062;27;5615;-66
2023/03/06 14:22:22;;;;;;;;;;;;;;;10.97;48.36;95805.81;4248133;27;6272;-66
2023/03/06 14:24:33;;;;;;;;;;;;;;;10.98;48.55;95799.47;4250016;27;5784;-66
2023/03/06 14:26:41;;;;;;;;;;;;;;;10.94;48.32;95812.34;4245319;27;5624;-67
2023/03/06 14:28:53;;;;;;;;;;;;;;;10.97;48.53;95798.69;4251050;27;5627;-66
2023/03/06 14:30:58;;;;;;;;;;;;;;;11.00;48.17;95800.09;4249865;27;6613;-66
2023/03/06 14:33:10;;;;;;;;;;;;;;;11.01;48.50;95794.59;4249257;27;5729;-66
2023/03/06 14:35:25;;;;;;;;;;;;;;;11.00;48.58;95800.91;4252870;27;5102;-66
2023/03/06 14:37:30;;;;;;;;;;;;;;;10.97;48.27;95792.59;4246274;27;7688;-66
2023/03/06 14:39:36;;;;;;;;;;;;;;;11.01;48.40;95791.94;4248132;27;5641;-66
2023/03/06 14:41:39;;;;;;;;;;;;;;;11.05;48.27;95782.53;4251343;27;5910;-66
2023/03/06 14:43:42;;;;;;;;;;;;;;;11.08;48.52;95782.06;4251465;27;5753;-66
2023/03/06 14:45:50;;;;;;;;;;;;;;;11.10;48.64;95779.25;4250452;27;5731;-65
2023/03/06 14:47:53;;;;;;;;;;;;;;;11.14;48.38;95779.59;4249007;27;5649;-66
2023/03/06 14:50:23;;;;;;;;;;;;;;;11.15;48.63;95781.22;4250724;27;5754;-66
2023/03/06 14:52:26;;;;;;;;;;;;;;;11.17;48.41;95784.44;4251655;27;5771;-66
2023/03/06 14:54:32;;;;;;;;;;;;;;;11.17;48.38;95773.84;4249628;27;5730;-66
2023/03/06 14:56:40;;;;;;;;;;;;;;;11.19;48.33;95777.06;4250914;27;5844;-66
2023/03/06 14:58:50;;;;;;;;;;;;;;;11.19;48.40;95777.06;4249134;27;5615;-66
2023/03/06 15:00:55;;;;;;;;;;;;;;;11.19;48.28;95777.06;4250691;27;5628;-66
2023/03/06 15:02:58;;;;;;;;;;;;;;;11.23;48.15;95767.69;4250107;27;5633;-66
2023/03/06 15:05:06;;;;;;;;;;;;;;;11.24;48.11;95774.59;4250407;27;5640;-66
2023/03/06 15:07:15;;;;;;;;;;;;;;;11.29;47.98;95777.38;4247604;27;5625;-66
2023/03/06 15:09:26;;;;;;;;;;;;;;;11.33;47.84;95770.63;4245315;27;5920;-67
2023/03/06 15:11:50;;;;;;;;;;;;;;;11.32;47.90;95766.34;4250157;27;6450;-66
2023/03/06 15:14:01;;;;;;;;;;;;;;;11.36;47.52;95763.03;4251275;27;5660;-65
2023/03/06 15:16:07;;;;;;;;;;;;;;;11.39;47.41;95767.06;4249695;27;5620;-66
2023/03/06 15:18:29;;;;;;;;;;;;;;;11.40;47.30;95773.97;4250246;27;5632;-67
2023/03/06 15:20:42;;;;;;;;;;;;;;;11.39;47.10;95767.06;4251066;27;5827;-66
2023/03/06 15:22:50;;;;;;;;;;;;;;;11.38;47.06;95768.09;4250993;27;5707;-65
2023/03/06 15:24:55;;;;;;;;;;;;;;;11.38;47.14;95768.91;4251342;27;5620;-64
2023/03/06 15:27:01;;;;;;;;;;;;;;;11.42;47.29;95771.91;4245291;27;5609;-65
2023/03/06 15:29:21;;;;;;;;;;;;;;;11.41;46.96;95766.84;4237113;27;6453;-65
2023/03/06 15:31:26;;;;;;;;;;;;;;;11.38;46.95;95771.56;4247575;27;5711;-67
2023/03/06 15:33:30;;;;;;;;;;;;;;;11.37;46.75;95772.59;4249402;27;5631;-67
2023/03/06 15:35:33;;;;;;;;;;;;;;;11.37;47.21;95772.59;4235711;27;5721;-67
2023/03/06 15:37:40;;;;;;;;;;;;;;;11.39;46.90;95772.38;4248914;27;7077;-65
2023/03/06 15:39:45;;;;;;;;;;;;;;;11.37;46.76;95774.44;4252502;27;5636;-66
2023/03/06 15:41:48;;;;;;;;;;;;;;;11.35;46.62;95772.00;4254155;27;5652;-65
2023/03/06 15:43:51;;;;;;;;;;;;;;;11.34;46.90;95767.75;4244481;27;5667;-67
2023/03/06 15:45:59;;;;;;;;;;;;;;;11.33;46.46;95768.78;4251438;27;5836;-65
2023/03/06 15:48:02;;;;;;;;;;;;;;;11.33;46.50;95771.44;4242712;27;5616;-66
2023/03/06 15:50:13;;;;;;;;;;;;;;;11.36;46.43;95772.81;4250243;27;6352;-66
2023/03/06 15:52:16;;;;;;;;;;;;;;;11.37;46.42;95769.13;4250194;27;5651;-66
2023/03/06 15:54:19;;;;;;;;;;;;;;;11.36;46.27;95767.53;4249170;27;5842;-66
2023/03/06 15:56:28;;;;;;;;;;;;;;;11.35;46.08;95765.91;4247822;27;6777;-66
2023/03/06 15:58:34;;;;;;;;;;;;;;;11.36;46.13;95772.81;4248494;27;5624;-66
2023/03/06 16:00:39;;;;;;;;;;;;;;;11.36;45.85;95772.81;4244509;27;5699;-66
2023/03/06 16:02:47;;;;;;;;;;;;;;;11.36;46.02;95770.97;4249266;27;6394;-66
2023/03/06 16:04:53;;;;;;;;;;;;;;;11.38;45.66;95770.75;4238324;27;5661;-66
2023/03/06 16:06:56;;;;;;;;;;;;;;;11.38;45.76;95770.75;4249488;27;5815;-65
2023/03/06 16:08:59;;;;;;;;;;;;;;;11.41;45.39;95780.06;4247162;27;5870;-65
2023/03/06 16:11:05;;;;;;;;;;;;;;;11.39;45.38;95775.00;4242341;27;5762;-65
2023/03/06 16:13:14;;;;;;;;;;;;;;;11.40;45.30;95779.28;4250116;27;5644;-65
2023/03/06 16:15:19;;;;;;;;;;;;;;;11.43;45.17;95778.00;4250570;27;5851;-66
2023/03/06 16:17:22;;;;;;;;;;;;;;;11.43;45.10;95776.16;4250559;27;5777;-66
2023/03/06 16:19:27;;;;;;;;;;;;;;;11.44;44.70;95772.53;4249617;27;5648;-66
2023/03/06 16:21:30;;;;;;;;;;;;;;;11.44;45.08;95780.47;4250390;27;5629;-67
2023/03/06 16:23:37;;;;;;;;;;;;;;;11.42;44.69;95779.84;4249984;27;5676;-67
2023/03/06 16:25:42;;;;;;;;;;;;;;;11.43;44.71;95781.47;4251203;27;5640;-67
2023/03/06 16:27:54;;;;;;;;;;;;;;;11.44;44.99;95780.47;4251282;27;5623;-66
2023/03/06 16:29:58;;;;;;;;;;;;;;;11.44;44.87;95782.25;4251327;27;5624;-66
2023/03/06 16:32:01;;;;;;;;;;;;;;;11.41;44.58;95780.06;4251169;27;5719;-66
2023/03/06 16:34:04;;;;;;;;;;;;;;;11.39;45.01;95790.88;4250946;27;5651;-66